createdAt,value
2018-09-05T00:02:09.150Z,3.13
2018-09-05T00:04:37.542Z,3.43
2018-09-05T00:07:05.818Z,4.00
2018-09-05T00:09:34.034Z,3.23
2018-09-05T00:12:02.274Z,3.53
2018-09-05T00:14:30.531Z,3.83
2018-09-05T00:16:58.770Z,3.80
2018-09-05T00:19:27.248Z,3.90
2018-09-05T00:21:55.726Z,4.37
2018-09-05T00:24:24.317Z,4.00
2018-09-05T00:26:52.955Z,3.93
2018-09-05T00:29:21.588Z,4.50
2018-09-05T00:31:49.995Z,4.83
2018-09-05T00:34:18.494Z,3.90
2018-09-05T00:36:47.119Z,4.03
2018-09-05T00:39:15.659Z,3.50
2018-09-05T00:41:43.974Z,3.20
2018-09-05T00:44:12.196Z,3.23
2018-09-05T00:46:40.668Z,3.57
2018-09-05T00:49:09.098Z,3.23
2018-09-05T00:51:37.375Z,3.53
2018-09-05T00:54:05.904Z,4.53
2018-09-05T00:56:34.418Z,3.57
2018-09-05T00:59:02.643Z,3.47
2018-09-05T01:01:30.882Z,3.50
2018-09-05T01:03:59.378Z,3.37
2018-09-05T01:06:27.984Z,3.40
2018-09-05T01:08:56.544Z,3.37
2018-09-05T01:11:24.832Z,3.60
2018-09-05T01:13:53.075Z,2.87
2018-09-05T01:16:21.542Z,3.63
2018-09-05T01:18:50.075Z,3.50
2018-09-05T01:21:18.628Z,3.13
2018-09-05T01:23:47.263Z,3.70
2018-09-05T01:26:15.835Z,3.40
2018-09-05T01:28:44.510Z,3.30
2018-09-05T01:31:12.976Z,3.53
2018-09-05T01:33:41.610Z,3.63
2018-09-05T01:36:16.280Z,3.53
2018-09-05T01:38:44.863Z,3.70
2018-09-05T01:41:14.134Z,3.33
2018-09-05T01:43:43.128Z,3.50
2018-09-05T01:46:11.452Z,4.03
2018-09-05T01:48:39.994Z,4.03
2018-09-05T01:51:08.648Z,3.63
2018-09-05T01:53:37.209Z,3.93
2018-09-05T01:56:05.829Z,4.00
2018-09-05T01:58:35.281Z,3.30
2018-09-05T02:01:03.912Z,4.00
2018-09-05T02:03:32.528Z,3.73
2018-09-05T02:06:01.172Z,3.57
2018-09-05T02:09:09.460Z,3.20
2018-09-05T02:11:37.945Z,3.53
2018-09-05T02:14:06.566Z,3.47
2018-09-05T02:16:35.039Z,3.10
2018-09-05T02:19:03.473Z,3.73
2018-09-05T02:21:32.096Z,3.47
2018-09-05T02:24:00.617Z,4.30
2018-09-05T02:26:29.197Z,3.30
2018-09-05T02:28:58.123Z,3.50
2018-09-05T02:31:26.653Z,3.07
2018-09-05T02:33:55.282Z,3.07
2018-09-05T02:36:23.730Z,3.53
2018-09-05T02:38:52.381Z,3.47
2018-09-05T02:41:20.982Z,3.77
2018-09-05T02:43:54.303Z,3.77
2018-09-05T02:46:22.821Z,3.60
2018-09-05T02:48:51.433Z,3.67
2018-09-05T02:51:20.064Z,4.20
2018-09-05T02:53:48.553Z,3.60
2018-09-05T02:56:17.029Z,3.67
2018-09-05T02:58:45.580Z,4.00
2018-09-05T03:01:14.629Z,3.80
2018-09-05T03:03:43.047Z,4.13
2018-09-05T03:06:11.486Z,4.10
2018-09-05T03:08:39.919Z,3.77
2018-09-05T03:11:08.380Z,3.77
2018-09-05T03:13:37.003Z,4.10
2018-09-05T03:16:05.459Z,4.23
2018-09-05T03:18:34.080Z,4.13
2018-09-05T03:21:02.714Z,3.97
2018-09-05T03:23:31.235Z,4.20
2018-09-05T03:25:59.792Z,5.00
2018-09-05T03:28:28.259Z,3.83
2018-09-05T03:30:56.682Z,4.03
2018-09-05T03:33:25.376Z,4.43
2018-09-05T03:35:53.940Z,3.90
2018-09-05T03:38:22.385Z,3.90
2018-09-05T03:40:50.801Z,4.33
2018-09-05T03:43:19.060Z,4.10
2018-09-05T03:45:47.533Z,3.87
2018-09-05T03:48:15.932Z,3.80
2018-09-05T03:50:44.562Z,3.50
2018-09-05T03:53:12.833Z,3.57
2018-09-05T03:55:41.264Z,3.77
2018-09-05T03:58:09.884Z,3.80
2018-09-05T04:00:38.340Z,3.63
2018-09-05T04:03:06.572Z,3.33
2018-09-05T04:05:35.089Z,4.03
2018-09-05T04:08:03.654Z,3.73
2018-09-05T04:10:32.100Z,4.40
2018-09-05T04:13:00.305Z,4.00
2018-09-05T04:15:28.800Z,3.40
2018-09-05T04:17:57.219Z,4.00
2018-09-05T04:20:25.427Z,3.90
2018-09-05T04:22:53.672Z,4.10
2018-09-05T04:25:21.951Z,3.23
2018-09-05T04:27:49.784Z,4.13
2018-09-05T04:30:17.714Z,4.40
2018-09-05T04:32:45.541Z,3.83
2018-09-05T04:35:13.375Z,3.93
2018-09-05T04:37:41.818Z,3.97
2018-09-05T04:40:09.668Z,3.80
2018-09-05T04:42:37.593Z,3.43
2018-09-05T04:45:05.460Z,3.63
2018-09-05T04:47:33.319Z,3.60
2018-09-05T04:50:01.184Z,4.23
2018-09-05T04:52:29.009Z,4.17
2018-09-05T04:54:56.840Z,3.57
2018-09-05T04:57:24.664Z,4.60
2018-09-05T04:59:52.519Z,4.20
2018-09-05T05:02:20.479Z,4.80
2018-09-05T05:04:48.379Z,4.20
2018-09-05T05:07:16.208Z,5.67
2018-09-05T05:09:44.653Z,5.70
2018-09-05T05:12:12.490Z,5.50
2018-09-05T05:14:40.326Z,6.80
2018-09-05T05:17:08.159Z,6.80
2018-09-05T05:19:36.012Z,6.63
2018-09-05T05:22:04.778Z,7.07
2018-09-05T05:24:32.672Z,6.20
2018-09-05T05:27:01.171Z,6.33
2018-09-05T05:29:29.579Z,6.50
2018-09-05T05:31:57.546Z,6.17
2018-09-05T05:34:25.666Z,6.40
2018-09-05T05:36:53.669Z,6.37
2018-09-05T05:39:21.619Z,6.77
2018-09-05T05:41:49.849Z,6.60
2018-09-05T05:44:17.686Z,7.47
2018-09-05T05:46:45.700Z,6.53
2018-09-05T05:49:13.382Z,5.97
2018-09-05T05:51:41.348Z,7.90
2018-09-05T05:54:09.175Z,6.43
2018-09-05T05:56:37.342Z,6.30
2018-09-05T05:59:05.972Z,6.60
2018-09-05T06:01:34.636Z,6.10
2018-09-05T06:04:03.051Z,6.23
2018-09-05T06:06:31.747Z,7.17
2018-09-05T06:09:00.328Z,5.33
2018-09-05T06:11:28.829Z,5.80
2018-09-05T06:13:57.102Z,5.33
2018-09-05T06:16:25.160Z,6.33
2018-09-05T06:18:53.012Z,6.20
2018-09-05T06:21:20.853Z,5.97
2018-09-05T06:23:48.680Z,6.00
2018-09-05T06:26:16.579Z,6.17
2018-09-05T06:28:45.063Z,6.17
2018-09-05T06:31:13.590Z,6.57
2018-09-05T06:33:42.127Z,6.97
2018-09-05T06:36:10.584Z,6.80
2018-09-05T06:38:39.024Z,7.70
2018-09-05T06:41:07.439Z,6.67
2018-09-05T06:43:36.113Z,7.03
2018-09-05T06:46:05.100Z,7.20
2018-09-05T06:48:33.579Z,6.33
2018-09-05T06:51:05.850Z,7.90
2018-09-05T06:53:34.363Z,6.77
2018-09-05T06:56:02.829Z,7.50
2018-09-05T06:58:30.784Z,6.57
2018-09-05T07:00:59.319Z,6.53
2018-09-05T07:03:28.089Z,7.23
2018-09-05T07:05:56.887Z,7.27
2018-09-05T07:08:25.411Z,8.17
2018-09-05T07:10:54.141Z,9.03
2018-09-05T07:13:22.729Z,9.27
2018-09-05T07:15:51.137Z,9.87
2018-09-05T07:18:20.074Z,10.37
2018-09-05T07:20:48.376Z,10.40
2018-09-05T07:23:16.814Z,10.17
2018-09-05T07:25:45.290Z,10.00
2018-09-05T07:28:13.924Z,11.70
2018-09-05T07:30:42.603Z,10.73
2018-09-05T07:33:11.356Z,9.00
2018-09-05T07:35:39.909Z,10.17
2018-09-05T07:38:08.244Z,8.40
2018-09-05T07:40:36.140Z,8.27
2018-09-05T07:43:04.063Z,8.60
2018-09-05T07:45:33.166Z,8.10
2018-09-05T07:48:01.732Z,8.50
2018-09-05T07:50:30.344Z,7.57
2018-09-05T07:52:58.144Z,9.07
2018-09-05T07:55:25.970Z,8.07
2018-09-05T07:57:53.810Z,7.13
2018-09-05T08:00:21.646Z,7.57
2018-09-05T08:02:50.073Z,7.70
2018-09-05T08:05:17.892Z,7.97
2018-09-05T08:07:46.395Z,7.80
2018-09-05T08:10:15.201Z,7.77
2018-09-05T08:12:43.671Z,7.50
2018-09-05T08:15:11.490Z,7.47
2018-09-05T08:17:39.332Z,6.90
2018-09-05T08:20:07.837Z,7.97
2018-09-05T08:22:36.485Z,7.47
2018-09-05T08:25:04.335Z,7.23
2018-09-05T08:27:32.163Z,8.20
2018-09-05T08:30:00.597Z,7.40
2018-09-05T08:32:29.219Z,7.17
2018-09-05T08:34:57.922Z,7.10
2018-09-05T08:37:26.708Z,7.47
2018-09-05T08:39:55.129Z,6.63
2018-09-05T08:42:23.899Z,7.43
2018-09-05T08:44:52.609Z,7.90
2018-09-05T08:47:20.884Z,7.10
2018-09-05T08:49:49.482Z,6.20
2018-09-05T08:52:17.910Z,6.43
2018-09-05T08:54:46.449Z,6.10
2018-09-05T08:57:14.987Z,5.73
2018-09-05T08:59:43.422Z,6.13
2018-09-05T09:02:12.064Z,6.33
2018-09-05T09:04:39.939Z,6.27
2018-09-05T09:07:07.748Z,6.17
2018-09-05T09:09:35.580Z,6.03
2018-09-05T09:12:03.445Z,7.13
2018-09-05T09:14:31.674Z,5.80
2018-09-05T09:16:59.999Z,5.17
2018-09-05T09:19:28.677Z,5.93
2018-09-05T09:21:57.247Z,5.47
2018-09-05T09:24:25.963Z,5.03
2018-09-05T09:26:54.862Z,4.67
2018-09-05T09:29:23.319Z,4.50
2018-09-05T09:31:51.552Z,4.97
2018-09-05T09:34:20.007Z,4.33
2018-09-05T09:36:48.429Z,4.07
2018-09-05T09:39:16.499Z,4.50
2018-09-05T09:41:45.131Z,12.43
2018-09-05T09:44:13.552Z,9.43
2018-09-05T09:46:41.849Z,5.13
2018-09-05T09:49:09.940Z,5.00
2018-09-05T09:51:38.510Z,4.47
2018-09-05T09:54:06.326Z,5.00
2018-09-05T09:56:34.193Z,4.80
2018-09-05T09:59:02.086Z,3.97
2018-09-05T10:01:35.593Z,4.30
2018-09-05T10:04:09.173Z,3.70
2018-09-05T10:06:43.167Z,4.70
2018-09-05T10:09:16.707Z,3.47
2018-09-05T10:11:50.242Z,4.00
2018-09-05T10:14:23.572Z,4.10
2018-09-05T10:16:57.336Z,3.50
2018-09-05T10:19:25.960Z,3.73
2018-09-05T10:21:55.340Z,3.90
2018-09-05T10:24:24.175Z,4.40
2018-09-05T10:26:52.627Z,4.13
2018-09-05T10:29:20.507Z,3.07
2018-09-05T10:31:49.389Z,3.30
2018-09-05T10:34:18.034Z,5.00
2018-09-05T10:36:46.167Z,3.47
2018-09-05T10:39:27.644Z,3.90
2018-09-05T10:41:56.063Z,3.90
2018-09-05T10:44:24.729Z,3.80
2018-09-05T10:46:53.127Z,4.10
2018-09-05T10:49:21.789Z,3.93
2018-09-05T10:51:56.350Z,3.80
2018-09-05T10:54:25.750Z,3.40
2018-09-05T10:56:54.354Z,3.00
2018-09-05T10:59:23.028Z,3.10
2018-09-05T11:01:51.689Z,3.23
2018-09-05T11:04:20.351Z,3.33
2018-09-05T11:06:48.911Z,3.83
2018-09-05T11:09:17.339Z,2.73
2018-09-05T11:11:45.992Z,2.77
2018-09-05T11:14:14.619Z,2.87
2018-09-05T11:16:43.286Z,3.10
2018-09-05T11:19:11.928Z,3.20
2018-09-05T11:21:40.747Z,3.10
2018-09-05T11:24:09.030Z,3.43
2018-09-05T11:26:37.559Z,3.70
2018-09-05T11:29:05.491Z,3.30
2018-09-05T11:31:33.440Z,3.33
2018-09-05T11:34:01.352Z,3.27
2018-09-05T11:36:29.189Z,3.30
2018-09-05T11:38:57.047Z,3.00
2018-09-05T11:41:24.874Z,3.07
2018-09-05T11:43:53.065Z,3.17
2018-09-05T11:46:21.024Z,3.17
2018-09-05T11:48:48.943Z,3.07
2018-09-05T11:51:16.855Z,3.10
2018-09-05T11:53:44.852Z,3.10
2018-09-05T11:56:12.887Z,2.90
2018-09-05T11:58:40.809Z,2.93
2018-09-05T12:01:08.724Z,2.93
2018-09-05T12:03:37.148Z,2.73
2018-09-05T12:06:05.074Z,2.70
2018-09-05T12:08:32.992Z,4.03
2018-09-05T12:11:00.848Z,3.17
2018-09-05T12:13:28.724Z,2.80
2018-09-05T12:15:56.602Z,3.10
2018-09-05T12:18:24.457Z,3.47
2018-09-05T12:20:52.383Z,3.30
2018-09-05T12:23:20.210Z,3.40
2018-09-05T12:25:48.869Z,3.50
2018-09-05T12:28:17.462Z,3.10
2018-09-05T12:30:46.015Z,3.43
2018-09-05T12:33:14.651Z,3.00
2018-09-05T12:35:42.743Z,3.37
2018-09-05T12:38:10.606Z,2.90
2018-09-05T12:40:38.459Z,2.83
2018-09-05T12:43:06.744Z,2.57
2018-09-05T12:45:34.579Z,3.20
2018-09-05T12:48:02.409Z,3.13
2018-09-05T12:50:30.247Z,3.40
2018-09-05T12:52:58.074Z,2.93
2018-09-05T12:55:26.725Z,3.20
2018-09-05T12:57:54.646Z,3.20
2018-09-05T13:00:22.607Z,3.20
2018-09-05T13:02:50.447Z,3.20
2018-09-05T13:05:19.088Z,3.50
2018-09-05T13:07:48.024Z,3.07
2018-09-05T13:10:16.539Z,2.90
2018-09-05T13:12:44.360Z,3.10
2018-09-05T13:15:12.219Z,3.00
2018-09-05T13:17:40.079Z,3.40
2018-09-05T13:20:07.952Z,3.20
2018-09-05T13:22:35.856Z,3.23
2018-09-05T13:25:03.792Z,3.20
2018-09-05T13:27:31.635Z,3.17
2018-09-05T13:29:59.472Z,3.30
2018-09-05T13:32:27.318Z,3.57
2018-09-05T13:34:55.560Z,3.10
2018-09-05T13:37:23.582Z,3.97
2018-09-05T13:39:51.960Z,3.00
2018-09-05T13:42:19.791Z,3.50
2018-09-05T13:44:47.705Z,3.53
2018-09-05T13:47:15.548Z,5.10
2018-09-05T13:49:43.423Z,3.93
2018-09-05T13:52:17.244Z,3.50
2018-09-05T13:54:45.479Z,3.70
2018-09-05T13:57:14.126Z,3.40
2018-09-05T13:59:42.879Z,3.10
2018-09-05T14:02:11.253Z,3.50
2018-09-05T14:04:39.847Z,3.37
2018-09-05T14:07:08.512Z,3.20
2018-09-05T14:09:37.114Z,3.23
2018-09-05T14:12:05.687Z,3.20
2018-09-05T14:14:34.510Z,3.13
2018-09-05T14:17:03.046Z,3.00
2018-09-05T14:19:31.488Z,3.60
2018-09-05T14:22:00.108Z,3.20
2018-09-05T14:24:28.720Z,3.30
2018-09-05T14:26:57.357Z,3.63
2018-09-05T14:29:25.601Z,3.70
2018-09-05T14:31:54.044Z,3.53
2018-09-05T14:34:22.160Z,3.43
2018-09-05T14:36:50.753Z,3.30
2018-09-05T14:39:19.376Z,3.17
2018-09-05T14:41:48.014Z,3.70
2018-09-05T14:44:17.271Z,2.90
2018-09-05T14:46:45.763Z,3.57
2018-09-05T14:49:14.699Z,3.50
2018-09-05T14:51:43.276Z,3.17
2018-09-05T14:54:12.172Z,3.17
2018-09-05T14:56:40.848Z,3.10
2018-09-05T14:59:09.488Z,3.53
2018-09-05T15:01:38.100Z,3.57
2018-09-05T15:04:06.561Z,3.00
2018-09-05T15:06:35.249Z,3.60
2018-09-05T15:09:03.838Z,3.30
2018-09-05T15:11:32.532Z,3.90
2018-09-05T15:14:00.913Z,3.70
2018-09-05T15:16:29.722Z,3.83
2018-09-05T15:18:58.391Z,3.60
2018-09-05T15:21:26.960Z,3.40
2018-09-05T15:23:55.687Z,3.27
2018-09-05T15:26:24.406Z,3.77
2018-09-05T15:28:53.051Z,3.30
2018-09-05T15:31:21.296Z,3.57
2018-09-05T15:33:50.210Z,3.70
2018-09-05T15:36:18.820Z,3.50
2018-09-05T15:38:47.752Z,3.47
2018-09-05T15:41:16.059Z,3.60
2018-09-05T15:43:44.679Z,3.10
2018-09-05T15:46:13.153Z,3.50
2018-09-05T15:48:41.852Z,3.87
2018-09-05T15:51:10.254Z,3.50
2018-09-05T15:53:38.869Z,3.50
2018-09-05T15:56:07.366Z,3.50
2018-09-05T15:58:36.027Z,3.17
2018-09-05T16:01:04.579Z,3.67
2018-09-05T16:03:33.261Z,3.17
2018-09-05T16:06:01.865Z,3.30
2018-09-05T16:08:30.511Z,3.67
2018-09-05T16:10:59.119Z,3.50
2018-09-05T16:13:27.759Z,3.80
2018-09-05T16:15:56.359Z,3.63
2018-09-05T16:18:24.602Z,3.90
2018-09-05T16:20:53.220Z,3.87
2018-09-05T16:23:21.450Z,3.63
2018-09-05T16:25:50.153Z,3.67
2018-09-05T16:28:18.600Z,4.00
2018-09-05T16:30:47.249Z,4.17
2018-09-05T16:33:15.889Z,3.40
2018-09-05T16:35:44.396Z,3.97
2018-09-05T16:38:12.826Z,4.20
2018-09-05T16:40:41.408Z,3.33
2018-09-05T16:43:09.867Z,3.47
2018-09-05T16:45:38.483Z,3.60
2018-09-05T16:48:07.297Z,3.50
2018-09-05T16:50:35.943Z,3.77
2018-09-05T16:53:04.652Z,3.67
2018-09-05T16:55:33.224Z,3.90
2018-09-05T16:58:01.835Z,3.90
2018-09-05T17:00:30.269Z,4.17
2018-09-05T17:02:58.921Z,4.10
2018-09-05T17:05:27.528Z,3.40
2018-09-05T17:07:56.157Z,3.63
2018-09-05T17:10:24.405Z,3.90
2018-09-05T17:12:52.670Z,3.80
2018-09-05T17:15:21.160Z,4.07
2018-09-05T17:17:50.118Z,3.03
2018-09-05T17:20:19.194Z,4.03
2018-09-05T17:22:47.827Z,3.73
2018-09-05T17:25:16.532Z,4.07
2018-09-05T17:27:45.141Z,4.60
2018-09-05T17:30:13.428Z,4.77
2018-09-05T17:32:41.964Z,4.83
2018-09-05T17:35:10.600Z,4.50
2018-09-05T17:37:39.247Z,5.30
2018-09-05T17:40:07.886Z,4.87
2018-09-05T17:42:36.320Z,4.10
2018-09-05T17:45:04.934Z,4.10
2018-09-05T17:47:33.424Z,4.00
2018-09-05T17:50:01.877Z,4.00
2018-09-05T17:52:30.502Z,4.43
2018-09-05T17:54:59.094Z,4.27
2018-09-05T17:57:27.596Z,4.33
2018-09-05T17:59:56.188Z,3.77
2018-09-05T18:02:24.637Z,4.30
2018-09-05T18:04:53.251Z,3.50
2018-09-05T18:07:21.708Z,3.70
2018-09-05T18:09:50.136Z,3.97
2018-09-05T18:12:18.779Z,4.07
2018-09-05T18:14:47.515Z,4.20
2018-09-05T18:17:16.179Z,4.00
2018-09-05T18:19:44.440Z,3.80
2018-09-05T18:22:12.682Z,4.70
2018-09-05T18:24:41.331Z,4.40
2018-09-05T18:27:09.783Z,3.53
2018-09-05T18:29:38.049Z,3.77
2018-09-05T18:32:06.283Z,3.50
2018-09-05T18:34:34.894Z,3.90
2018-09-05T18:37:03.159Z,4.03
2018-09-05T18:39:31.053Z,4.03
2018-09-05T18:41:58.875Z,3.63
2018-09-05T18:44:27.490Z,4.17
2018-09-05T18:46:55.968Z,4.13
2018-09-05T18:49:24.563Z,4.40
2018-09-05T18:51:53.207Z,4.07
2018-09-05T18:54:21.850Z,3.77
2018-09-05T18:56:50.480Z,3.93
2018-09-05T18:59:18.946Z,3.73
2018-09-05T19:01:47.933Z,3.70
2018-09-05T19:04:16.392Z,3.60
2018-09-05T19:06:45.051Z,4.27
2018-09-05T19:09:13.493Z,4.30
2018-09-05T19:11:42.307Z,4.40
2018-09-05T19:14:11.882Z,3.93
2018-09-05T19:16:40.594Z,3.97
2018-09-05T19:19:08.998Z,3.90
2018-09-05T19:21:37.451Z,4.30
2018-09-05T19:24:05.864Z,3.97
2018-09-05T19:26:34.882Z,3.97
2018-09-05T19:29:03.420Z,3.27
2018-09-05T19:31:31.898Z,3.70
2018-09-05T19:34:02.523Z,4.07
2018-09-05T19:36:31.057Z,5.50
2018-09-05T19:38:59.760Z,3.90
2018-09-05T19:41:28.290Z,4.47
2018-09-05T19:43:56.875Z,3.90
2018-09-05T19:46:24.759Z,3.93
2018-09-05T19:48:52.583Z,3.77
2018-09-05T19:51:20.424Z,3.63
2018-09-05T19:53:48.242Z,4.37
2018-09-05T19:56:16.438Z,4.20
2018-09-05T19:58:44.363Z,4.00
2018-09-05T20:01:12.624Z,4.27
2018-09-05T20:03:41.098Z,4.47
2018-09-05T20:06:10.169Z,3.83
2018-09-05T20:08:38.169Z,4.30
2018-09-05T20:11:06.013Z,4.60
2018-09-05T20:13:34.009Z,4.50
2018-09-05T20:16:02.187Z,4.80
2018-09-05T20:18:30.131Z,5.33
2018-09-05T20:20:58.449Z,5.73
2018-09-05T20:23:27.147Z,4.70
2018-09-05T20:25:55.136Z,4.30
2018-09-05T20:28:23.526Z,4.70
2018-09-05T20:30:51.441Z,5.63
2018-09-05T20:33:19.275Z,4.57
2018-09-05T20:35:47.144Z,5.00
2018-09-05T20:38:15.103Z,4.43
2018-09-05T20:40:43.595Z,4.80
2018-09-05T20:43:11.994Z,4.37
2018-09-05T20:45:39.815Z,4.60
2018-09-05T20:48:07.650Z,4.23
2018-09-05T20:50:35.467Z,4.27
2018-09-05T20:53:03.307Z,4.50
2018-09-05T20:55:31.127Z,4.33
2018-09-05T20:57:58.963Z,4.47
2018-09-05T21:00:26.800Z,3.77
2018-09-05T21:02:54.631Z,4.47
2018-09-05T21:05:23.255Z,4.17
2018-09-05T21:07:51.888Z,4.53
2018-09-05T21:10:20.827Z,4.20
2018-09-05T21:12:49.552Z,4.43
2018-09-05T21:15:18.181Z,4.60
2018-09-05T21:17:46.843Z,4.90
2018-09-05T21:20:15.237Z,4.20
2018-09-05T21:22:43.680Z,4.37
2018-09-05T21:25:12.143Z,5.60
2018-09-05T21:27:40.790Z,4.40
2018-09-05T21:30:09.212Z,4.03
2018-09-05T21:32:37.424Z,4.53
2018-09-05T21:35:05.667Z,4.67
2018-09-05T21:37:33.903Z,3.93
2018-09-05T21:40:01.732Z,4.40
2018-09-05T21:42:30.195Z,4.00
2018-09-05T21:44:58.007Z,4.47
2018-09-05T21:47:25.834Z,4.23
2018-09-05T21:49:53.663Z,4.60
2018-09-05T21:52:21.771Z,4.40
2018-09-05T21:54:49.588Z,4.33
2018-09-05T21:57:17.445Z,5.00
2018-09-05T21:59:45.270Z,5.50
2018-09-05T22:02:13.093Z,4.60
2018-09-05T22:04:40.910Z,4.60
2018-09-05T22:07:08.743Z,4.80
2018-09-05T22:09:36.563Z,4.60
2018-09-05T22:12:04.415Z,4.50
2018-09-05T22:14:32.888Z,4.87
2018-09-05T22:17:00.763Z,4.50
2018-09-05T22:19:28.607Z,4.47
2018-09-05T22:21:56.451Z,5.10
2018-09-05T22:24:24.276Z,4.27
2018-09-05T22:26:52.104Z,4.33
2018-09-05T22:29:19.963Z,4.70
2018-09-05T22:31:47.804Z,7.17
2018-09-05T22:34:15.628Z,4.73
2018-09-05T22:36:43.458Z,4.23
2018-09-05T22:39:11.566Z,4.10
2018-09-05T22:41:39.419Z,5.07
2018-09-05T22:44:12.554Z,4.20
2018-09-05T22:47:45.870Z,3.93
2018-09-05T22:51:25.168Z,3.93
2018-09-05T22:55:05.332Z,4.33
2018-09-05T22:59:40.913Z,4.10
2018-09-05T23:02:13.950Z,4.40
2018-09-05T23:04:47.221Z,3.97
2018-09-05T23:07:21.440Z,4.00
2018-09-05T23:09:54.745Z,4.20
2018-09-05T23:12:27.967Z,3.97
2018-09-05T23:15:01.274Z,3.80
2018-09-05T23:17:34.573Z,4.17
2018-09-05T23:20:09.703Z,4.17
2018-09-05T23:22:42.995Z,3.70
2018-09-05T23:25:11.351Z,4.20
2018-09-05T23:27:39.855Z,4.27
2018-09-05T23:30:08.459Z,4.17
2018-09-05T23:32:36.291Z,4.13
2018-09-05T23:35:04.233Z,4.60
2018-09-05T23:37:32.814Z,3.90
2018-09-05T23:40:00.661Z,4.23
2018-09-05T23:42:28.493Z,4.20
2018-09-05T23:44:56.456Z,3.90
2018-09-05T23:47:24.472Z,4.00
2018-09-05T23:49:52.320Z,3.93
2018-09-05T23:52:21.081Z,3.63
2018-09-05T23:54:48.918Z,3.53
2018-09-05T23:57:16.765Z,3.93
2018-09-05T23:59:44.614Z,3.90
